47VA weather

Division Five Heliport
Chesapeake, Virginia, United States

Public forecast

Using degrees Fahrenheit for public forecast. Weather courtesy of forecast.io.

METAR (pilot weather report)

Closest report is Norfolk International Airport, 6.2 nm (11.4 km) NNE. Retrieved 2019/04/18 17:51 UTC (31 minutes ago):

KORF 181751Z 22018G24KT 10SM CLR 28/06 A3000 RMK AO2 SLP159 T02780061 58013

TAF (pilot weather forecast)

Closest forecast is Norfolk International Airport, 6.2 nm (11.4 km) NNE. Retrieved 2019/04/18 18:00 UTC (22 minutes ago):

TAF KORF 181758Z 1818/1918 21016G24KT P6SM SCT250 FM190200 19014G22KT P6SM SCT120 FM190600 19014G23KT P6SM BKN090 FM191200 19018G26KT P6SM OVC025 FM191500 19022G32KT P6SM OVC030